createdAt,value
2022-10-05T00:02:53.719Z,9.48
2022-10-05T00:05:55.128Z,9.40
2022-10-05T00:08:56.578Z,10.20
2022-10-05T00:11:58.216Z,10.30
2022-10-05T00:15:01.431Z,9.63
2022-10-05T00:18:09.384Z,7.82
2022-10-05T00:21:19.624Z,10.43
2022-10-05T00:24:20.989Z,9.00
2022-10-05T00:27:25.408Z,9.88
2022-10-05T00:30:32.134Z,10.40
2022-10-05T00:33:33.505Z,7.68
2022-10-05T00:36:34.896Z,9.88
2022-10-05T00:39:40.330Z,8.90
2022-10-05T00:42:51.221Z,9.00
2022-10-05T00:46:25.498Z,10.65
2022-10-05T00:50:04.552Z,10.77
2022-10-05T00:53:25.383Z,7.68
2022-10-05T00:56:59.337Z,11.05
2022-10-05T01:00:08.406Z,10.77
2022-10-05T01:03:25.965Z,9.10
2022-10-05T01:06:46.571Z,9.20
2022-10-05T01:10:08.378Z,9.50
2022-10-05T01:13:35.953Z,7.88
2022-10-05T01:16:41.059Z,9.52
2022-10-05T01:19:58.418Z,11.27
2022-10-05T01:23:21.183Z,10.52
2022-10-05T01:26:44.237Z,8.75
2022-10-05T01:30:02.474Z,10.88
2022-10-05T01:33:11.550Z,11.32
2022-10-05T01:36:12.846Z,9.23
2022-10-05T01:39:29.184Z,7.72
2022-10-05T01:42:48.868Z,8.80
2022-10-05T01:46:08.895Z,8.27
2022-10-05T01:49:30.179Z,8.23
2022-10-05T01:52:57.078Z,12.95
2022-10-05T01:56:07.708Z,7.88
2022-10-05T01:59:41.876Z,11.82
2022-10-05T02:03:01.908Z,7.57
2022-10-05T02:06:13.136Z,9.10
2022-10-05T02:09:24.936Z,11.65
2022-10-05T02:12:31.266Z,9.73
2022-10-05T02:15:42.852Z,9.25
2022-10-05T02:18:54.376Z,10.25
2022-10-05T02:22:03.244Z,14.48
2022-10-05T02:25:14.205Z,9.75
2022-10-05T02:28:30.546Z,10.55
2022-10-05T02:31:45.186Z,11.70
2022-10-05T02:34:47.061Z,12.15
2022-10-05T02:38:18.364Z,9.45
2022-10-05T02:41:47.513Z,9.27
2022-10-05T02:45:01.994Z,9.20
2022-10-05T02:48:22.465Z,8.60
2022-10-05T02:51:35.073Z,10.32
2022-10-05T02:54:55.349Z,9.53
2022-10-05T02:58:04.307Z,12.73
2022-10-05T03:01:24.158Z,10.85
2022-10-05T03:04:55.401Z,9.40
2022-10-05T03:08:18.946Z,10.27
2022-10-05T03:11:46.655Z,8.73
2022-10-05T03:15:06.338Z,12.48
2022-10-05T03:18:42.722Z,10.82
2022-10-05T03:21:57.387Z,11.70
2022-10-05T03:25:23.614Z,9.75
2022-10-05T03:28:58.492Z,10.10
2022-10-05T03:32:02.910Z,9.40
2022-10-05T03:35:18.050Z,11.05
2022-10-05T03:38:29.463Z,8.57
2022-10-05T03:41:46.500Z,10.35
2022-10-05T03:45:05.736Z,9.85
2022-10-05T03:48:15.379Z,12.02
2022-10-05T03:51:42.840Z,9.13
2022-10-05T03:54:47.091Z,11.77
2022-10-05T03:57:51.708Z,9.93
2022-10-05T04:00:59.816Z,11.75
2022-10-05T04:04:04.844Z,9.25
2022-10-05T04:07:21.872Z,10.38
2022-10-05T04:10:27.036Z,11.32
2022-10-05T04:13:42.249Z,12.30
2022-10-05T04:16:54.809Z,14.27
2022-10-05T04:20:05.565Z,10.55
2022-10-05T04:23:10.589Z,9.55
2022-10-05T04:26:24.782Z,12.10
2022-10-05T04:29:53.247Z,10.00
2022-10-05T04:32:56.731Z,10.55
2022-10-05T04:36:07.870Z,13.05
2022-10-05T04:39:21.158Z,12.60
2022-10-05T04:42:30.883Z,16.88
2022-10-05T04:45:50.142Z,13.80
2022-10-05T04:49:29.330Z,11.77
2022-10-05T04:52:40.101Z,13.00
2022-10-05T04:55:57.774Z,12.20
2022-10-05T04:59:30.803Z,11.82
2022-10-05T05:02:44.942Z,11.48
2022-10-05T05:06:15.909Z,12.25
2022-10-05T05:09:42.478Z,10.85
2022-10-05T05:13:16.621Z,11.85
2022-10-05T05:16:38.793Z,11.82
2022-10-05T05:19:54.866Z,13.57
2022-10-05T05:23:10.059Z,11.40
2022-10-05T05:26:30.114Z,14.48
2022-10-05T05:30:03.193Z,12.35
2022-10-05T05:33:22.367Z,12.73
2022-10-05T05:36:43.145Z,16.38
2022-10-05T05:39:50.764Z,14.30
2022-10-05T05:43:24.430Z,12.70
2022-10-05T05:47:01.565Z,14.15
2022-10-05T05:50:31.075Z,15.98
2022-10-05T05:53:44.242Z,11.35
2022-10-05T05:57:05.479Z,13.23
2022-10-05T06:00:24.535Z,12.82
2022-10-05T06:03:48.944Z,16.27
2022-10-05T06:06:53.738Z,17.27
2022-10-05T06:10:05.857Z,12.68
2022-10-05T06:13:35.144Z,15.18
2022-10-05T06:16:43.647Z,16.23
2022-10-05T06:19:47.088Z,12.77
2022-10-05T06:22:50.541Z,12.20
2022-10-05T06:26:13.500Z,15.23
2022-10-05T06:29:22.853Z,12.75
2022-10-05T06:32:36.624Z,13.13
2022-10-05T06:35:56.976Z,15.52
2022-10-05T06:39:07.961Z,12.75
2022-10-05T06:42:15.726Z,11.70
2022-10-05T06:46:20.737Z,14.20
2022-10-05T06:50:07.017Z,13.27
2022-10-05T06:53:41.453Z,14.52
2022-10-05T06:56:50.630Z,14.10
2022-10-05T07:00:19.330Z,12.40
2022-10-05T07:03:48.978Z,14.18
2022-10-05T07:06:56.639Z,12.18
2022-10-05T07:10:07.745Z,11.85
2022-10-05T07:13:24.776Z,15.18
2022-10-05T07:16:59.833Z,12.02
2022-10-05T07:20:07.524Z,16.67
2022-10-05T07:23:36.990Z,14.13
2022-10-05T07:27:17.761Z,12.98
2022-10-05T07:30:19.931Z,10.40
2022-10-05T07:33:28.807Z,13.70
2022-10-05T07:36:41.611Z,9.98
2022-10-05T07:40:09.776Z,12.52
2022-10-05T07:44:00.424Z,13.65
2022-10-05T07:50:44.198Z,11.98
2022-10-05T07:54:05.973Z,13.40
2022-10-05T07:57:20.186Z,10.70
2022-10-05T08:00:24.456Z,11.57
2022-10-05T08:03:42.841Z,12.18
2022-10-05T08:06:57.716Z,10.50
2022-10-05T08:10:28.590Z,14.45
2022-10-05T08:13:47.386Z,12.40
2022-10-05T08:16:53.738Z,12.57
2022-10-05T08:20:17.042Z,15.35
2022-10-05T08:23:42.295Z,11.02
2022-10-05T08:26:49.652Z,12.95
2022-10-05T08:30:08.690Z,11.10
2022-10-05T08:33:16.586Z,13.45
2022-10-05T08:36:31.797Z,13.63
2022-10-05T08:39:41.449Z,13.25
2022-10-05T08:43:07.694Z,14.27
2022-10-05T08:46:18.360Z,12.57
2022-10-05T08:49:42.358Z,11.93
2022-10-05T08:53:01.574Z,12.98
2022-10-05T08:56:26.373Z,16.33
2022-10-05T09:00:07.885Z,11.18
2022-10-05T09:03:28.985Z,11.23
2022-10-05T09:06:57.596Z,14.57
2022-10-05T09:10:17.652Z,15.65
2022-10-05T09:13:39.938Z,14.50
2022-10-05T09:16:49.399Z,14.15
2022-10-05T09:20:16.191Z,12.82
2022-10-05T09:23:34.739Z,12.80
2022-10-05T09:26:53.011Z,10.15
2022-10-05T09:30:19.384Z,11.90
2022-10-05T09:33:55.193Z,12.15
2022-10-05T09:37:33.181Z,12.38
2022-10-05T09:40:53.303Z,11.23
2022-10-05T09:44:16.120Z,11.90
2022-10-05T09:47:26.053Z,10.07
2022-10-05T09:50:46.188Z,11.57
2022-10-05T09:54:09.494Z,9.68
2022-10-05T09:57:25.873Z,10.70
2022-10-05T10:00:34.925Z,9.80
2022-10-05T10:04:13.573Z,10.15
2022-10-05T10:07:35.994Z,9.05
2022-10-05T10:10:43.329Z,8.88
2022-10-05T10:14:12.040Z,11.88
2022-10-05T10:17:24.945Z,9.25
2022-10-05T10:20:26.309Z,11.13
2022-10-05T10:23:49.497Z,8.30
2022-10-05T10:27:18.602Z,9.02
2022-10-05T10:30:41.079Z,9.90
2022-10-05T10:34:19.219Z,10.27
2022-10-05T10:37:57.483Z,10.35
2022-10-05T10:41:26.170Z,11.75
2022-10-05T10:44:54.911Z,9.05
2022-10-05T10:48:04.623Z,10.30
2022-10-05T10:51:05.899Z,9.13
2022-10-05T10:54:32.650Z,10.07
2022-10-05T10:58:15.086Z,8.02
2022-10-05T11:01:34.518Z,8.75
2022-10-05T11:04:47.799Z,9.15
2022-10-05T11:08:07.423Z,8.32
2022-10-05T11:11:56.348Z,7.75
2022-10-05T11:15:25.148Z,7.53
2022-10-05T11:18:41.376Z,7.43
2022-10-05T11:22:20.342Z,7.43
2022-10-05T11:25:48.679Z,12.70
2022-10-05T11:29:11.891Z,6.30
2022-10-05T11:32:13.208Z,6.63
2022-10-05T11:35:46.627Z,8.55
2022-10-05T11:39:25.032Z,8.02
2022-10-05T11:43:05.226Z,5.55
2022-10-05T11:46:43.677Z,6.40
2022-10-05T11:49:47.780Z,8.30
2022-10-05T11:53:06.347Z,5.05
2022-10-05T12:00:09.409Z,4.93
2022-10-05T12:06:39.868Z,4.47
2022-10-05T12:10:08.323Z,4.72
2022-10-05T12:13:44.992Z,6.95
2022-10-05T12:16:57.083Z,4.68
2022-10-05T12:20:03.048Z,5.07
2022-10-05T12:23:32.229Z,6.88
2022-10-05T12:26:40.153Z,4.45
2022-10-05T12:29:54.175Z,3.70
2022-10-05T12:33:05.913Z,7.47
2022-10-05T12:36:36.003Z,4.18
2022-10-05T12:39:56.353Z,4.30
2022-10-05T12:43:39.706Z,5.35
2022-10-05T12:47:07.041Z,4.47
2022-10-05T12:50:30.732Z,5.40
2022-10-05T12:53:41.389Z,4.63
2022-10-05T12:56:50.205Z,4.00
2022-10-05T13:00:04.466Z,5.75
2022-10-05T13:03:23.978Z,6.13
2022-10-05T13:07:05.058Z,8.20
2022-10-05T13:10:26.838Z,6.63
2022-10-05T13:13:39.245Z,6.53
2022-10-05T13:17:06.981Z,6.40
2022-10-05T13:20:32.552Z,4.82
2022-10-05T13:23:47.327Z,3.90
2022-10-05T13:27:15.814Z,5.35
2022-10-05T13:30:20.198Z,6.55
2022-10-05T13:33:28.471Z,4.55
2022-10-05T13:36:41.110Z,3.92
2022-10-05T13:40:06.383Z,3.83
2022-10-05T13:43:16.163Z,3.75
2022-10-05T13:46:37.577Z,5.18
2022-10-05T13:49:49.554Z,3.55
2022-10-05T13:53:12.787Z,5.88
2022-10-05T13:56:33.324Z,4.72
2022-10-05T13:59:49.584Z,4.60
2022-10-05T14:02:53.256Z,4.82
2022-10-05T14:05:57.757Z,4.00
2022-10-05T14:08:59.204Z,4.32
2022-10-05T14:12:03.325Z,3.58
2022-10-05T14:15:20.518Z,4.95
2022-10-05T14:18:27.462Z,3.50
2022-10-05T14:21:31.064Z,3.92
2022-10-05T14:24:44.873Z,4.00
2022-10-05T14:28:03.899Z,3.60
2022-10-05T14:31:16.357Z,3.00
2022-10-05T14:34:27.090Z,5.75
2022-10-05T14:37:41.897Z,5.40
2022-10-05T14:40:43.337Z,5.28
2022-10-05T14:44:00.105Z,4.57
2022-10-05T14:47:19.958Z,3.85
2022-10-05T14:50:23.943Z,3.95
2022-10-05T14:53:37.611Z,6.20
2022-10-05T14:56:53.555Z,7.72
2022-10-05T14:59:57.856Z,5.38
2022-10-05T15:03:18.672Z,4.28
2022-10-05T15:06:44.150Z,6.00
2022-10-05T15:10:23.333Z,7.72
2022-10-05T15:13:30.898Z,3.60
2022-10-05T15:16:35.816Z,3.97
2022-10-05T15:19:47.755Z,3.45
2022-10-05T15:22:58.627Z,3.83
2022-10-05T15:26:18.273Z,8.18
2022-10-05T15:29:47.333Z,3.35
2022-10-05T15:33:21.367Z,4.28
2022-10-05T15:36:49.416Z,6.53
2022-10-05T15:39:56.118Z,4.30
2022-10-05T15:43:04.246Z,3.50
2022-10-05T15:46:11.299Z,5.05
2022-10-05T15:49:33.572Z,3.40
2022-10-05T15:52:46.313Z,2.85
2022-10-05T15:55:52.161Z,5.05
2022-10-05T15:59:07.896Z,7.45
2022-10-05T16:02:22.572Z,3.45
2022-10-05T16:05:47.808Z,3.30
2022-10-05T16:09:05.776Z,4.22
2022-10-05T16:12:34.024Z,4.97
2022-10-05T16:15:40.096Z,3.63
2022-10-05T16:18:52.853Z,4.45
2022-10-05T16:22:03.348Z,6.50
2022-10-05T16:25:10.509Z,3.85
2022-10-05T16:28:14.820Z,9.10
2022-10-05T16:31:22.563Z,5.78
2022-10-05T16:34:48.870Z,4.22
2022-10-05T16:38:29.397Z,3.85
2022-10-05T16:41:34.519Z,3.70
2022-10-05T16:44:40.934Z,3.83
2022-10-05T16:47:52.908Z,3.83
2022-10-05T16:51:19.376Z,5.75
2022-10-05T16:54:30.185Z,6.80
2022-10-05T16:57:38.820Z,6.55
2022-10-05T17:01:24.735Z,4.97
2022-10-05T17:04:39.457Z,4.43
2022-10-05T17:07:49.963Z,4.85
2022-10-05T17:11:03.498Z,6.78
2022-10-05T17:14:27.716Z,5.55
2022-10-05T17:17:59.663Z,9.25
2022-10-05T17:21:17.807Z,5.63
2022-10-05T17:24:29.871Z,3.85
2022-10-05T17:27:34.003Z,4.78
2022-10-05T17:30:46.760Z,5.13
2022-10-05T17:33:59.972Z,6.43
2022-10-05T17:37:18.247Z,3.85
2022-10-05T17:40:33.926Z,5.35
2022-10-05T17:43:35.595Z,5.63
2022-10-05T17:46:44.535Z,5.63
2022-10-05T17:49:59.416Z,3.83
2022-10-05T17:53:37.582Z,4.80
2022-10-05T17:56:44.942Z,5.13
2022-10-05T17:59:57.150Z,4.63
2022-10-05T18:02:58.652Z,4.68
2022-10-05T18:06:25.098Z,4.85
2022-10-05T18:09:26.401Z,3.83
2022-10-05T18:12:41.345Z,3.97
2022-10-05T18:15:45.768Z,3.25
2022-10-05T18:18:56.929Z,4.38
2022-10-05T18:22:13.351Z,5.53
2022-10-05T18:25:17.646Z,2.92
2022-10-05T18:28:31.561Z,4.72
2022-10-05T18:31:39.405Z,3.97
2022-10-05T18:35:19.599Z,4.28
2022-10-05T18:38:55.883Z,3.78
2022-10-05T18:42:09.415Z,5.28
2022-10-05T18:45:19.764Z,3.38
2022-10-05T18:48:58.644Z,6.05
2022-10-05T18:52:28.216Z,3.90
2022-10-05T18:55:37.074Z,4.80
2022-10-05T18:58:56.938Z,3.10
2022-10-05T19:02:18.791Z,3.00
2022-10-05T19:05:47.449Z,3.65
2022-10-05T19:09:14.393Z,3.70
2022-10-05T19:12:53.261Z,3.30
2022-10-05T19:16:19.994Z,3.55
2022-10-05T19:19:39.481Z,4.85
2022-10-05T19:23:11.090Z,2.97
2022-10-05T19:26:43.229Z,3.05
2022-10-05T19:30:03.393Z,3.88
2022-10-05T19:33:10.813Z,4.35
2022-10-05T19:36:21.475Z,4.30
2022-10-05T19:39:36.825Z,3.53
2022-10-05T19:43:00.893Z,3.30
2022-10-05T19:46:17.700Z,3.30
2022-10-05T19:49:53.803Z,2.92
2022-10-05T19:53:43.867Z,3.45
2022-10-05T19:56:48.003Z,4.53
2022-10-05T19:59:49.351Z,5.28
2022-10-05T20:03:11.695Z,3.15
2022-10-05T20:06:13.130Z,3.15
2022-10-05T20:09:21.326Z,4.55
2022-10-05T20:12:22.759Z,4.10
2022-10-05T20:15:36.000Z,3.85
2022-10-05T20:21:47.803Z,3.40
2022-10-05T20:24:51.228Z,3.35
2022-10-05T20:27:54.023Z,5.55
2022-10-05T20:30:55.608Z,4.30
2022-10-05T20:33:59.196Z,3.40
2022-10-05T20:37:00.531Z,2.63
2022-10-05T20:40:02.325Z,3.00
2022-10-05T20:43:03.680Z,3.25
2022-10-05T20:46:05.167Z,3.83
2022-10-05T20:49:06.497Z,2.92
2022-10-05T20:52:09.426Z,4.22
2022-10-05T20:55:11.360Z,4.38
2022-10-05T20:58:12.688Z,3.45
2022-10-05T21:01:14.091Z,3.67
2022-10-05T21:04:17.615Z,2.95
2022-10-05T21:07:19.397Z,3.88
2022-10-05T21:10:20.725Z,3.45
2022-10-05T21:13:22.138Z,4.05
2022-10-05T21:16:23.538Z,5.30
2022-10-05T21:19:25.013Z,3.65
2022-10-05T21:22:26.362Z,3.72
2022-10-05T21:25:27.678Z,3.30
2022-10-05T21:28:29.511Z,5.05
2022-10-05T21:31:31.286Z,3.90
2022-10-05T21:34:32.694Z,2.88
2022-10-05T21:37:33.998Z,5.35
2022-10-05T21:40:35.344Z,6.60
2022-10-05T21:43:36.801Z,4.88
2022-10-05T21:46:39.021Z,6.00
2022-10-05T21:49:41.280Z,4.77
2022-10-05T21:52:42.951Z,2.87
2022-10-05T21:55:48.011Z,3.33
2022-10-05T21:58:50.816Z,3.80
2022-10-05T22:01:52.149Z,2.20
2022-10-05T22:04:53.480Z,2.50
2022-10-05T22:07:54.783Z,2.22
2022-10-05T22:10:57.027Z,4.05
2022-10-05T22:13:58.649Z,3.70
2022-10-05T22:17:00.029Z,4.43
2022-10-05T22:20:02.170Z,2.90
2022-10-05T22:23:03.504Z,1.83
2022-10-05T22:26:06.425Z,3.58
2022-10-05T22:29:07.860Z,3.28
2022-10-05T22:32:09.272Z,3.53
2022-10-05T22:35:11.901Z,2.90
2022-10-05T22:38:13.354Z,5.38
2022-10-05T22:41:15.151Z,2.50
2022-10-05T22:44:16.538Z,4.18
2022-10-05T22:47:17.857Z,5.13
2022-10-05T22:50:19.322Z,3.00
2022-10-05T22:53:20.658Z,13.07
2022-10-05T22:56:21.986Z,26.38
2022-10-05T22:59:23.341Z,1.58
2022-10-05T23:02:24.748Z,1.85
2022-10-05T23:05:26.181Z,3.65
2022-10-05T23:08:28.042Z,2.38
2022-10-05T23:11:29.578Z,3.25
2022-10-05T23:14:30.895Z,1.40
2022-10-05T23:17:32.286Z,2.20
2022-10-05T23:20:33.593Z,1.40
2022-10-05T23:23:43.180Z,2.40
2022-10-05T23:26:44.511Z,1.83
2022-10-05T23:29:46.286Z,1.80
2022-10-05T23:32:47.603Z,1.75
2022-10-05T23:35:48.947Z,3.05
2022-10-05T23:38:50.507Z,0.63
2022-10-05T23:41:51.981Z,1.02
2022-10-05T23:44:53.318Z,0.77
2022-10-05T23:47:54.658Z,0.93
2022-10-05T23:50:56.041Z,2.10
2022-10-05T23:53:57.379Z,0.95
2022-10-05T23:56:58.713Z,1.40
